Zeran (malta) — 9HHJ5 — position and weather

sailwx.info

Track history (hours):
 
Tides and Currents Weather Stations Pressure Air Temp Water Temp Dewpoint Dewpoint Depression Visibility Wind Speed Wind Dir Waves Ship Positions

Zeran (malta)

Last reported at 2016-Jun-26 18:07 UTC. Time now 2016-Jun-26 20:59 UTC.
Position N 42°32' E 009°44'.

Length 148 m; beam 24 m.

Type: Ship (hazmat cat A). MMSI: 249846000.

Date/timePositionNaut miles runAvg speedWind from/ knotsBaromVisibWave heightAir tempDewpointWater temp
2016-Jun-26 18:07N 42°32' E 009°44'610.2
2016-Jun-26 17:33N 42°38' E 009°43'1010.1
2016-Jun-26 16:33N 42°48' E 009°42'1010.3
2016-Jun-26 15:33N 42°58' E 009°38'1211.0
2016-Jun-26 14:28N 43°10' E 009°33'1010.5
2016-Jun-26 13:33N 43°19' E 009°29'1010.3
2016-Jun-26 12:33N 43°28' E 009°24'1010.5
2016-Jun-26 11:33N 43°38' E 009°19'1010.4
2016-Jun-26 10:33N 43°47' E 009°13'1110.6
2016-Jun-26 09:33N 43°57' E 009°07'1110.9
2016-Jun-26 08:34N 44°07' E 009°02'1110.6
2016-Jun-26 07:33N 44°18' E 008°58'8 7.5
2016-Jun-26 06:31N 44°24' E 008°53'0 0.0
2016-Jun-26 05:31N 44°24' E 008°53'0 0.0
2016-Jun-26 04:31N 44°24' E 008°53'0 0.0
2016-Jun-26 03:28N 44°24' E 008°53'0 0.0
2016-Jun-26 02:28N 44°24' E 008°53'0 0.0
2016-Jun-26 01:28N 44°24' E 008°53'0 0.0
2016-Jun-26 00:28N 44°24' E 008°53'0 0.0
2016-Jun-25 23:31N 44°24' E 008°53'0 0.0
2016-Jun-25 22:31N 44°24' E 008°53'0 0.0
2016-Jun-25 21:31N 44°24' E 008°53'0 0.0
2016-Jun-25 20:31N 44°24' E 008°53'0 0.0
2016-Jun-25 19:31N 44°24' E 008°53'0 0.0
2016-Jun-25 18:31N 44°24' E 008°53'0 0.0
2016-Jun-25 17:31N 44°24' E 008°53'0 0.0
2016-Jun-25 16:31N 44°24' E 008°53'0 0.0
2016-Jun-25 15:31N 44°24' E 008°53'0 0.0
2016-Jun-25 14:31N 44°24' E 008°53'0 0.0
2016-Jun-25 13:28N 44°24' E 008°53'0 0.0
2016-Jun-25 12:31N 44°24' E 008°53'0 0.0
2016-Jun-25 11:31N 44°24' E 008°53'0 0.0
2016-Jun-25 10:31N 44°24' E 008°53'0 0.0
2016-Jun-25 09:31N 44°24' E 008°53'0 0.0
2016-Jun-25 08:31N 44°24' E 008°53'0 0.0
2016-Jun-25 07:31N 44°24' E 008°53'0 0.0
2016-Jun-25 06:31N 44°24' E 008°53'0 0.0
2016-Jun-25 05:31N 44°24' E 008°53'0 0.0
2016-Jun-25 04:31N 44°24' E 008°53'4 4.0
2016-Jun-25 03:34N 44°23' E 008°57'10 9.8
2016-Jun-25 02:34N 44°14' E 009°02'1010.3
2016-Jun-25 01:34N 44°04' E 009°07'1010.4
2016-Jun-25 00:34N 43°54' E 009°12'1010.3
2016-Jun-24 23:34N 43°45' E 009°18'1010.3
2016-Jun-24 22:34N 43°35' E 009°23'1110.9
2016-Jun-24 21:34N 43°25' E 009°28'1414.1
2016-Jun-24 20:34N 43°12' E 009°35'1414.0
2016-Jun-24 19:33N 42°58' E 009°41'1413.9
2016-Jun-24 18:33N 42°48' E 009°54'2713.6
2016-Jun-24 16:33N 42°30' E 010°22'2814.0
2016-Jun-24 14:33N 42°14' E 010°53'226 6.8
2016-Jun-23 05:22N 38°44' E 012°41'6014.1
2016-Jun-23 01:05N 37°60' E 011°49'  
2016-Jun-19 14:18N 43°09' E 009°34'810.9
2016-Jun-19 13:33N 43°17' E 009°30'1111.1
2016-Jun-19 12:33N 43°27' E 009°24'1110.8
2016-Jun-19 11:33N 43°37' E 009°18'1110.7
2016-Jun-19 10:33N 43°47' E 009°12'1110.8
2016-Jun-19 09:33N 43°57' E 009°07'1111.1
2016-Jun-19 08:33N 44°08' E 009°02'1111.2
2016-Jun-19 07:33N 44°18' E 008°56'7 6.5
2016-Jun-19 06:32N 44°24' E 008°53'0 0.0
2016-Jun-19 05:32N 44°24' E 008°53'0 0.0
2016-Jun-19 04:32N 44°24' E 008°53'0 0.0
2016-Jun-19 03:32N 44°24' E 008°53'0 0.0
2016-Jun-19 02:32N 44°24' E 008°53'0 0.0
2016-Jun-19 01:32N 44°24' E 008°53'0 0.0
2016-Jun-19 00:29N 44°24' E 008°53'0 0.0
2016-Jun-18 23:32N 44°24' E 008°53'0 0.0
2016-Jun-18 22:32N 44°24' E 008°53'0 0.0
2016-Jun-18 21:29N 44°24' E 008°53'0 0.0
2016-Jun-18 20:32N 44°24' E 008°53'0 0.0
2016-Jun-18 19:32N 44°24' E 008°53'0 0.0
2016-Jun-18 18:32N 44°24' E 008°53'0 0.0
2016-Jun-18 17:32N 44°24' E 008°53'0 0.0
2016-Jun-18 16:32N 44°24' E 008°53'0 0.0
2016-Jun-18 15:32N 44°24' E 008°53'0 0.0
2016-Jun-18 14:32N 44°24' E 008°53'0 0.0
2016-Jun-18 13:32N 44°24' E 008°53'0 0.0
2016-Jun-18 12:32N 44°24' E 008°53'0 0.0
2016-Jun-18 11:32N 44°24' E 008°53'0 0.0
2016-Jun-18 10:32N 44°24' E 008°53'0 0.0
2016-Jun-18 09:32N 44°24' E 008°53'0 0.0
2016-Jun-18 08:32N 44°24' E 008°53'0 0.0
2016-Jun-18 07:33N 44°24' E 008°53'5 5.1
2016-Jun-18 06:33N 44°21' E 008°58'1313.0
2016-Jun-18 05:34N 44°09' E 009°05'1414.1
2016-Jun-18 04:33N 43°56' E 009°12'1414.2
2016-Jun-18 03:33N 43°43' E 009°18'1414.1
2016-Jun-18 02:33N 43°29' E 009°25'1413.7
2016-Jun-18 01:33N 43°17' E 009°32'1713.5
2016-Jun-18 00:17N 43°01' E 009°41'1013.6
2016-Jun-17 23:33N 42°52' E 009°48'1913.8
2016-Jun-17 22:09N 42°40' E 010°09'813.3
2016-Jun-17 21:31N 42°35' E 010°18'1313.2
2016-Jun-17 20:32N 42°26' E 010°31'1313.2
2016-Jun-17 19:33N 42°19' E 010°45'15713.1
2016-Jun-17 07:33N 40°47' E 013°36'1713.1
2016-Jun-17 06:15N 40°38' E 013°55'912.8
2016-Jun-17 05:33N 40°34' E 014°05'1212.5
2016-Jun-17 04:33N 40°32' E 014°21'  
Track history (hours):
 
Tides and Currents Weather Stations Pressure Air Temp Water Temp Dewpoint Dewpoint Depression Visibility Wind Speed Wind Dir Waves Ship Positions

Zeran (malta)

Last reported at 2016-Jun-26 18:07 UTC. Time now 2016-Jun-26 20:59 UTC.
Position N 42°32' E 009°44'.

Length 148 m; beam 24 m.

Type: Ship (hazmat cat A). MMSI: 249846000.

Date/timePositionNaut miles runAvg speedWind from/ knotsBaromVisibWave heightAir tempDewpointWater temp
2016-Jun-26 18:07N 42°32' E 009°44'610.2
2016-Jun-26 17:33N 42°38' E 009°43'1010.1
2016-Jun-26 16:33N 42°48' E 009°42'1010.3
2016-Jun-26 15:33N 42°58' E 009°38'1211.0
2016-Jun-26 14:28N 43°10' E 009°33'1010.5
2016-Jun-26 13:33N 43°19' E 009°29'1010.3
2016-Jun-26 12:33N 43°28' E 009°24'1010.5
2016-Jun-26 11:33N 43°38' E 009°19'1010.4
2016-Jun-26 10:33N 43°47' E 009°13'1110.6
2016-Jun-26 09:33N 43°57' E 009°07'1110.9
2016-Jun-26 08:34N 44°07' E 009°02'1110.6
2016-Jun-26 07:33N 44°18' E 008°58'8 7.5
2016-Jun-26 06:31N 44°24' E 008°53'0 0.0
2016-Jun-26 05:31N 44°24' E 008°53'0 0.0
2016-Jun-26 04:31N 44°24' E 008°53'0 0.0
2016-Jun-26 03:28N 44°24' E 008°53'0 0.0
2016-Jun-26 02:28N 44°24' E 008°53'0 0.0
2016-Jun-26 01:28N 44°24' E 008°53'0 0.0
2016-Jun-26 00:28N 44°24' E 008°53'0 0.0
2016-Jun-25 23:31N 44°24' E 008°53'0 0.0
2016-Jun-25 22:31N 44°24' E 008°53'0 0.0
2016-Jun-25 21:31N 44°24' E 008°53'0 0.0
2016-Jun-25 20:31N 44°24' E 008°53'0 0.0
2016-Jun-25 19:31N 44°24' E 008°53'0 0.0
2016-Jun-25 18:31N 44°24' E 008°53'0 0.0
2016-Jun-25 17:31N 44°24' E 008°53'0 0.0
2016-Jun-25 16:31N 44°24' E 008°53'0 0.0
2016-Jun-25 15:31N 44°24' E 008°53'0 0.0
2016-Jun-25 14:31N 44°24' E 008°53'0 0.0
2016-Jun-25 13:28N 44°24' E 008°53'0 0.0
2016-Jun-25 12:31N 44°24' E 008°53'0 0.0
2016-Jun-25 11:31N 44°24' E 008°53'0 0.0
2016-Jun-25 10:31N 44°24' E 008°53'0 0.0
2016-Jun-25 09:31N 44°24' E 008°53'0 0.0
2016-Jun-25 08:31N 44°24' E 008°53'0 0.0
2016-Jun-25 07:31N 44°24' E 008°53'0 0.0
2016-Jun-25 06:31N 44°24' E 008°53'0 0.0
2016-Jun-25 05:31N 44°24' E 008°53'0 0.0
2016-Jun-25 04:31N 44°24' E 008°53'4 4.0
2016-Jun-25 03:34N 44°23' E 008°57'10 9.8
2016-Jun-25 02:34N 44°14' E 009°02'1010.3
2016-Jun-25 01:34N 44°04' E 009°07'1010.4
2016-Jun-25 00:34N 43°54' E 009°12'1010.3
2016-Jun-24 23:34N 43°45' E 009°18'1010.3
2016-Jun-24 22:34N 43°35' E 009°23'1110.9
2016-Jun-24 21:34N 43°25' E 009°28'1414.1
2016-Jun-24 20:34N 43°12' E 009°35'1414.0
2016-Jun-24 19:33N 42°58' E 009°41'1413.9
2016-Jun-24 18:33N 42°48' E 009°54'2713.6
2016-Jun-24 16:33N 42°30' E 010°22'2814.0
2016-Jun-24 14:33N 42°14' E 010°53'226 6.8
2016-Jun-23 05:22N 38°44' E 012°41'6014.1
2016-Jun-23 01:05N 37°60' E 011°49'  
2016-Jun-19 14:18N 43°09' E 009°34'810.9
2016-Jun-19 13:33N 43°17' E 009°30'1111.1
2016-Jun-19 12:33N 43°27' E 009°24'1110.8
2016-Jun-19 11:33N 43°37' E 009°18'1110.7
2016-Jun-19 10:33N 43°47' E 009°12'1110.8
2016-Jun-19 09:33N 43°57' E 009°07'1111.1
2016-Jun-19 08:33N 44°08' E 009°02'1111.2
2016-Jun-19 07:33N 44°18' E 008°56'7 6.5
2016-Jun-19 06:32N 44°24' E 008°53'0 0.0
2016-Jun-19 05:32N 44°24' E 008°53'0 0.0
2016-Jun-19 04:32N 44°24' E 008°53'0 0.0
2016-Jun-19 03:32N 44°24' E 008°53'0 0.0
2016-Jun-19 02:32N 44°24' E 008°53'0 0.0
2016-Jun-19 01:32N 44°24' E 008°53'0 0.0
2016-Jun-19 00:29N 44°24' E 008°53'0 0.0
2016-Jun-18 23:32N 44°24' E 008°53'0 0.0
2016-Jun-18 22:32N 44°24' E 008°53'0 0.0
2016-Jun-18 21:29N 44°24' E 008°53'0 0.0
2016-Jun-18 20:32N 44°24' E 008°53'0 0.0
2016-Jun-18 19:32N 44°24' E 008°53'0 0.0
2016-Jun-18 18:32N 44°24' E 008°53'0 0.0
2016-Jun-18 17:32N 44°24' E 008°53'0 0.0
2016-Jun-18 16:32N 44°24' E 008°53'0 0.0
2016-Jun-18 15:32N 44°24' E 008°53'0 0.0
2016-Jun-18 14:32N 44°24' E 008°53'0 0.0
2016-Jun-18 13:32N 44°24' E 008°53'0 0.0
2016-Jun-18 12:32N 44°24' E 008°53'0 0.0
2016-Jun-18 11:32N 44°24' E 008°53'0 0.0
2016-Jun-18 10:32N 44°24' E 008°53'0 0.0
2016-Jun-18 09:32N 44°24' E 008°53'0 0.0
2016-Jun-18 08:32N 44°24' E 008°53'0 0.0
2016-Jun-18 07:33N 44°24' E 008°53'5 5.1
2016-Jun-18 06:33N 44°21' E 008°58'1313.0
2016-Jun-18 05:34N 44°09' E 009°05'1414.1
2016-Jun-18 04:33N 43°56' E 009°12'1414.2
2016-Jun-18 03:33N 43°43' E 009°18'1414.1
2016-Jun-18 02:33N 43°29' E 009°25'1413.7
2016-Jun-18 01:33N 43°17' E 009°32'1713.5
2016-Jun-18 00:17N 43°01' E 009°41'1013.6
2016-Jun-17 23:33N 42°52' E 009°48'1913.8
2016-Jun-17 22:09N 42°40' E 010°09'813.3
2016-Jun-17 21:31N 42°35' E 010°18'1313.2
2016-Jun-17 20:32N 42°26' E 010°31'1313.2
2016-Jun-17 19:33N 42°19' E 010°45'15713.1
2016-Jun-17 07:33N 40°47' E 013°36'1713.1
2016-Jun-17 06:15N 40°38' E 013°55'912.8
2016-Jun-17 05:33N 40°34' E 014°05'1212.5
2016-Jun-17 04:33N 40°32' E 014°21'  

Dump ship's entire track history